Terminal Aerodrome Forecast
Issued by NWS

Home | Current Version | Previous Version | Text Only | Print | Product List | Glossary On
Versions: 1 2 3 4 5 6 7 8 9 10 11 12 13 14 15 16 17 18
123
FTUS41 KPHI 192320
TAFPNE
TAF
KPNE 192320Z 2000/2024 28013KT P6SM BKN050
     FM201000 27010KT P6SM SKC
     FM202300 24008KT P6SM SKC=

USA.gov is the U.S. government's official web portal to all federal, state and local government web resources and services.